logo tempoitalia

Diretta Meteo Irkutsk, Russialunedì 31 agosto ore 13:00

Mappa
Sereno 25 °C Sereno 24 Ore: T.min 10 T.max 26
Ponente Sud Km/h 25.2 Punto di rugiada: 13 °C Umidità: 47% Visibilità: 10 Km
Il sole sorge alle: 06:12 Il sole tramonta alle: 19:54
31 Agosto 2026 13:00 tempo osservato: Sereno Sereno 25 47 1009 vento: Nord S 25.2
31 Agosto 2026 12:30 tempo osservato: Sereno Sereno 25 44 1009 vento: Nord S 25.2
31 Agosto 2026 12:00 tempo osservato: Sereno Sereno 24 47 1009 vento: Nord S/SE 25.2
31 Agosto 2026 11:30 tempo osservato: Sereno Sereno 23 49 1009 vento: Nord S/SE 21.6
31 Agosto 2026 11:00 tempo osservato: Sereno Sereno 22 53 1010 vento: Nord S/SE 18
31 Agosto 2026 10:30 tempo osservato: Sereno Sereno 21 60 1010 vento: Nord S/SE 18
31 Agosto 2026 10:00 tempo osservato: Sereno Sereno 20 59 1010 vento: Nord SE 14.4
31 Agosto 2026 09:30 tempo osservato: Sereno Sereno 18 72 1010 vento: Nord N 7.2
31 Agosto 2026 09:00 tempo osservato: Sereno Sereno 16 77 1011 vento: Nord N 7.2
31 Agosto 2026 08:30 tempo osservato: Sereno Sereno 15 82 1011 vento: Nord N 7.2
31 Agosto 2026 08:00 tempo osservato: Sereno Sereno 13 93 1011 vento: Nord N 0
31 Agosto 2026 07:30 tempo osservato: Sereno Sereno 12 100 1011 vento: Nord N 3.6
31 Agosto 2026 07:00 tempo osservato: Sereno Sereno 11 100 1011 vento: Nord N 7.2
31 Agosto 2026 06:30 tempo osservato: Sereno Sereno 10 93 1011 vento: Nord N 0
31 Agosto 2026 06:00 tempo osservato: Sereno Sereno 11 93 1011 vento: Nord N 3.6
31 Agosto 2026 05:30 tempo osservato: Banco di nebbia Banco di nebbia 11 100 1011 vento: Nord N 7.2
31 Agosto 2026 05:00 tempo osservato: Sereno Sereno 12 93 1011 vento: Nord N 0
31 Agosto 2026 04:30 tempo osservato: Sereno Sereno 11 93 1011 vento: Nord N 0
31 Agosto 2026 04:00 tempo osservato: Sereno Sereno 12 93 1011 vento: Nord N 7.2
31 Agosto 2026 03:30 tempo osservato: Sereno Sereno 13 87 1011 vento: Nord N 7.2
31 Agosto 2026 03:00 tempo osservato: Sereno Sereno 13 87 1011 vento: Nord N 0
31 Agosto 2026 02:30 tempo osservato: Sereno Sereno 13 87 1011 vento: Nord N 0
31 Agosto 2026 02:00 tempo osservato: Sereno Sereno 14 82 1012 vento: Nord N 0
31 Agosto 2026 01:30 tempo osservato: Sereno Sereno 15 76 1012 vento: Nord N 0
31 Agosto 2026 01:00 tempo osservato: Sereno Sereno 15 76 1012 vento: Nord N 0
31 Agosto 2026 00:30 tempo osservato: Sereno Sereno 15 76 1012 vento: Nord N 3.6
31 Agosto 2026 00:00 tempo osservato: Sereno Sereno 16 72 1012 vento: Nord N 0
30 Agosto 2026 23:30 tempo osservato: Sereno Sereno 16 72 1012 vento: Nord N 0
30 Agosto 2026 23:00 tempo osservato: Sereno Sereno 17 67 1012 vento: Nord N 7.2
30 Agosto 2026 22:30 tempo osservato: Sereno Sereno 17 67 1012 vento: Nord N 7.2
30 Agosto 2026 22:00 tempo osservato: Sereno Sereno 18 63 1012 vento: Nord E 10.8
30 Agosto 2026 21:30 tempo osservato: Sereno Sereno 18 63 1012 vento: Nord E 10.8
30 Agosto 2026 21:00 tempo osservato: Sereno Sereno 18 63 1012 vento: Nord E/SE 14.4
30 Agosto 2026 20:30 tempo osservato: Sereno Sereno 18 63 1012 vento: Nord E/SE 10.8
30 Agosto 2026 20:00 tempo osservato: Sereno Sereno 19 59 1012 vento: Nord E/SE 14.4
30 Agosto 2026 19:30 tempo osservato: Sereno Sereno 21 52 1011 vento: Nord E 14.4
30 Agosto 2026 19:00 tempo osservato: Sereno Sereno 22 49 1011 vento: Nord E/SE 14.4
30 Agosto 2026 18:30 tempo osservato: Sereno Sereno 23 46 1011 vento: Nord E/SE 18
30 Agosto 2026 18:00 tempo osservato: Sereno Sereno 24 43 1011 vento: Nord E/SE 18
30 Agosto 2026 17:30 tempo osservato: Sereno Sereno 25 41 1011 vento: Nord S/SE 14.4
30 Agosto 2026 17:00 tempo osservato: Sereno Sereno 25 41 1011 vento: Nord S 18
30 Agosto 2026 16:30 tempo osservato: Sereno Sereno 25 38 1011 vento: Nord S 21.6
30 Agosto 2026 16:00 tempo osservato: Sereno Sereno 25 41 1011 vento: Nord S/SE 18
30 Agosto 2026 15:30 tempo osservato: Sereno Sereno 26 36 1012 vento: Nord S 21.6
30 Agosto 2026 15:00 tempo osservato: Sereno Sereno 25 38 1012 vento: Nord S/SE 21.6
30 Agosto 2026 14:30 tempo osservato: Sereno Sereno 25 38 1012 vento: Nord S 21.6
30 Agosto 2026 14:00 tempo osservato: Sereno Sereno 25 38 1012 vento: Nord S/SE 21.6